sensor_id;sensor_type;location;lat;lon;timestamp;P1;durP1;ratioP1;P2;durP2;ratioP2
7027;SDS011;3555;53.248;10.336;2022-07-15T00:00:36;7.93;;;1.40;;
7027;SDS011;3555;53.248;10.336;2022-07-15T00:03:03;8.25;;;1.58;;
7027;SDS011;3555;53.248;10.336;2022-07-15T00:05:30;5.88;;;1.17;;
7027;SDS011;3555;53.248;10.336;2022-07-15T00:07:57;4.15;;;1.40;;
7027;SDS011;3555;53.248;10.336;2022-07-15T00:10:27;5.05;;;1.70;;
7027;SDS011;3555;53.248;10.336;2022-07-15T00:12:55;9.60;;;2.20;;
7027;SDS011;3555;53.248;10.336;2022-07-15T00:15:25;5.35;;;1.25;;
7027;SDS011;3555;53.248;10.336;2022-07-15T00:17:53;6.88;;;1.67;;
7027;SDS011;3555;53.248;10.336;2022-07-15T00:20:23;5.50;;;1.30;;
7027;SDS011;3555;53.248;10.336;2022-07-15T00:22:51;5.07;;;1.33;;
7027;SDS011;3555;53.248;10.336;2022-07-15T00:25:18;5.93;;;1.60;;
7027;SDS011;3555;53.248;10.336;2022-07-15T00:27:53;8.90;;;1.60;;
7027;SDS011;3555;53.248;10.336;2022-07-15T00:30:22;5.07;;;1.58;;
7027;SDS011;3555;53.248;10.336;2022-07-15T00:32:50;3.90;;;1.27;;
7027;SDS011;3555;53.248;10.336;2022-07-15T00:35:17;8.07;;;1.48;;
7027;SDS011;3555;53.248;10.336;2022-07-15T00:37:44;4.40;;;1.50;;
7027;SDS011;3555;53.248;10.336;2022-07-15T00:40:11;6.63;;;1.60;;
7027;SDS011;3555;53.248;10.336;2022-07-15T00:42:38;4.05;;;1.10;;
7027;SDS011;3555;53.248;10.336;2022-07-15T00:45:12;6.70;;;1.85;;
7027;SDS011;3555;53.248;10.336;2022-07-15T00:47:40;4.78;;;1.45;;
7027;SDS011;3555;53.248;10.336;2022-07-15T00:50:08;3.33;;;1.20;;
7027;SDS011;3555;53.248;10.336;2022-07-15T00:52:35;4.38;;;1.35;;
7027;SDS011;3555;53.248;10.336;2022-07-15T00:55:06;6.70;;;1.52;;
7027;SDS011;3555;53.248;10.336;2022-07-15T00:57:36;6.07;;;1.40;;
7027;SDS011;3555;53.248;10.336;2022-07-15T01:00:06;8.57;;;1.90;;
7027;SDS011;3555;53.248;10.336;2022-07-15T01:02:35;5.88;;;2.08;;
7027;SDS011;3555;53.248;10.336;2022-07-15T01:05:03;4.90;;;1.25;;
7027;SDS011;3555;53.248;10.336;2022-07-15T01:07:31;7.40;;;1.73;;
7027;SDS011;3555;53.248;10.336;2022-07-15T01:09:58;5.50;;;1.50;;
7027;SDS011;3555;53.248;10.336;2022-07-15T01:12:25;3.05;;;1.40;;
7027;SDS011;3555;53.248;10.336;2022-07-15T01:14:53;4.75;;;1.25;;
7027;SDS011;3555;53.248;10.336;2022-07-15T01:17:20;6.47;;;1.70;;
7027;SDS011;3555;53.248;10.336;2022-07-15T01:19:49;6.25;;;1.45;;
7027;SDS011;3555;53.248;10.336;2022-07-15T01:22:17;5.45;;;1.50;;
7027;SDS011;3555;53.248;10.336;2022-07-15T01:24:44;5.82;;;1.52;;
7027;SDS011;3555;53.248;10.336;2022-07-15T01:27:11;6.88;;;1.50;;
7027;SDS011;3555;53.248;10.336;2022-07-15T01:29:38;4.60;;;1.10;;
7027;SDS011;3555;53.248;10.336;2022-07-15T01:32:05;5.03;;;1.40;;
7027;SDS011;3555;53.248;10.336;2022-07-15T01:34:32;4.28;;;1.33;;
7027;SDS011;3555;53.248;10.336;2022-07-15T01:36:58;7.57;;;1.60;;
7027;SDS011;3555;53.248;10.336;2022-07-15T01:39:27;5.97;;;1.88;;
7027;SDS011;3555;53.248;10.336;2022-07-15T01:41:54;3.92;;;1.40;;
7027;SDS011;3555;53.248;10.336;2022-07-15T01:44:21;5.63;;;1.38;;
7027;SDS011;3555;53.248;10.336;2022-07-15T01:46:47;7.28;;;1.73;;
7027;SDS011;3555;53.248;10.336;2022-07-15T01:49:14;2.63;;;1.30;;
7027;SDS011;3555;53.248;10.336;2022-07-15T01:51:57;5.00;;;1.50;;
7027;SDS011;3555;53.248;10.336;2022-07-15T01:54:25;7.18;;;1.30;;
7027;SDS011;3555;53.248;10.336;2022-07-15T01:56:55;7.00;;;1.52;;
7027;SDS011;3555;53.248;10.336;2022-07-15T01:59:22;14.90;;;1.70;;
7027;SDS011;3555;53.248;10.336;2022-07-15T02:01:50;5.93;;;1.63;;
7027;SDS011;3555;53.248;10.336;2022-07-15T02:04:18;9.20;;;2.00;;
7027;SDS011;3555;53.248;10.336;2022-07-15T02:06:45;5.43;;;1.20;;
7027;SDS011;3555;53.248;10.336;2022-07-15T02:09:12;5.50;;;1.38;;
7027;SDS011;3555;53.248;10.336;2022-07-15T02:11:40;6.50;;;1.30;;
7027;SDS011;3555;53.248;10.336;2022-07-15T02:14:08;3.92;;;1.20;;
7027;SDS011;3555;53.248;10.336;2022-07-15T02:16:35;3.22;;;1.27;;
7027;SDS011;3555;53.248;10.336;2022-07-15T02:19:02;5.90;;;1.40;;
7027;SDS011;3555;53.248;10.336;2022-07-15T02:21:29;6.25;;;1.20;;
7027;SDS011;3555;53.248;10.336;2022-07-15T02:23:56;5.65;;;1.30;;
7027;SDS011;3555;53.248;10.336;2022-07-15T02:26:23;4.50;;;1.23;;
7027;SDS011;3555;53.248;10.336;2022-07-15T02:28:52;6.47;;;1.55;;
7027;SDS011;3555;53.248;10.336;2022-07-15T02:31:19;5.00;;;1.35;;
7027;SDS011;3555;53.248;10.336;2022-07-15T02:33:46;4.15;;;1.30;;
7027;SDS011;3555;53.248;10.336;2022-07-15T02:36:13;6.93;;;1.10;;
7027;SDS011;3555;53.248;10.336;2022-07-15T02:38:40;3.65;;;1.38;;
7027;SDS011;3555;53.248;10.336;2022-07-15T02:41:07;4.75;;;1.10;;
7027;SDS011;3555;53.248;10.336;2022-07-15T02:43:36;4.47;;;1.25;;
7027;SDS011;3555;53.248;10.336;2022-07-15T02:46:05;3.78;;;1.27;;
7027;SDS011;3555;53.248;10.336;2022-07-15T02:48:31;6.57;;;1.20;;
7027;SDS011;3555;53.248;10.336;2022-07-15T02:50:58;6.05;;;1.30;;
7027;SDS011;3555;53.248;10.336;2022-07-15T02:53:25;4.50;;;1.27;;
7027;SDS011;3555;53.248;10.336;2022-07-15T02:55:54;4.80;;;1.15;;
7027;SDS011;3555;53.248;10.336;2022-07-15T02:58:21;4.97;;;1.48;;
7027;SDS011;3555;53.248;10.336;2022-07-15T03:00:48;5.07;;;1.20;;
7027;SDS011;3555;53.248;10.336;2022-07-15T03:03:16;3.75;;;1.38;;
7027;SDS011;3555;53.248;10.336;2022-07-15T03:05:43;6.28;;;1.55;;
7027;SDS011;3555;53.248;10.336;2022-07-15T03:08:10;3.80;;;1.23;;
7027;SDS011;3555;53.248;10.336;2022-07-15T03:10:38;8.13;;;1.30;;
7027;SDS011;3555;53.248;10.336;2022-07-15T03:13:05;6.35;;;1.20;;
7027;SDS011;3555;53.248;10.336;2022-07-15T03:15:32;5.80;;;1.48;;
7027;SDS011;3555;53.248;10.336;2022-07-15T03:17:58;4.70;;;1.20;;
7027;SDS011;3555;53.248;10.336;2022-07-15T03:20:26;8.38;;;1.30;;
7027;SDS011;3555;53.248;10.336;2022-07-15T03:22:54;5.43;;;1.40;;
7027;SDS011;3555;53.248;10.336;2022-07-15T03:25:20;5.10;;;1.23;;
7027;SDS011;3555;53.248;10.336;2022-07-15T03:27:47;3.53;;;1.10;;
7027;SDS011;3555;53.248;10.336;2022-07-15T03:30:14;6.05;;;1.55;;
7027;SDS011;3555;53.248;10.336;2022-07-15T03:32:41;4.00;;;1.40;;
7027;SDS011;3555;53.248;10.336;2022-07-15T03:35:08;4.25;;;1.50;;
7027;SDS011;3555;53.248;10.336;2022-07-15T03:37:37;4.50;;;1.17;;
7027;SDS011;3555;53.248;10.336;2022-07-15T03:40:04;5.60;;;1.67;;
7027;SDS011;3555;53.248;10.336;2022-07-15T03:42:31;4.43;;;1.30;;
7027;SDS011;3555;53.248;10.336;2022-07-15T03:44:59;4.47;;;1.35;;
7027;SDS011;3555;53.248;10.336;2022-07-15T03:47:26;3.05;;;1.00;;
7027;SDS011;3555;53.248;10.336;2022-07-15T03:49:54;3.83;;;1.30;;
7027;SDS011;3555;53.248;10.336;2022-07-15T03:52:21;5.93;;;1.30;;
7027;SDS011;3555;53.248;10.336;2022-07-15T03:54:49;4.55;;;1.38;;
7027;SDS011;3555;53.248;10.336;2022-07-15T03:57:16;5.40;;;1.30;;
7027;SDS011;3555;53.248;10.336;2022-07-15T03:59:43;4.45;;;1.42;;
7027;SDS011;3555;53.248;10.336;2022-07-15T04:02:10;6.65;;;1.17;;
7027;SDS011;3555;53.248;10.336;2022-07-15T04:04:36;6.22;;;1.75;;
7027;SDS011;3555;53.248;10.336;2022-07-15T04:07:03;4.90;;;1.30;;
7027;SDS011;3555;53.248;10.336;2022-07-15T04:09:30;6.15;;;2.10;;
7027;SDS011;3555;53.248;10.336;2022-07-15T04:11:58;2.75;;;0.80;;
7027;SDS011;3555;53.248;10.336;2022-07-15T04:14:26;5.35;;;1.50;;
7027;SDS011;3555;53.248;10.336;2022-07-15T04:16:52;4.10;;;0.93;;
7027;SDS011;3555;53.248;10.336;2022-07-15T04:19:19;5.35;;;1.52;;
7027;SDS011;3555;53.248;10.336;2022-07-15T04:21:46;6.03;;;1.48;;
7027;SDS011;3555;53.248;10.336;2022-07-15T04:24:13;3.83;;;1.20;;
7027;SDS011;3555;53.248;10.336;2022-07-15T04:26:40;4.10;;;1.30;;
7027;SDS011;3555;53.248;10.336;2022-07-15T04:29:08;4.90;;;1.63;;
7027;SDS011;3555;53.248;10.336;2022-07-15T04:31:35;4.80;;;1.25;;
7027;SDS011;3555;53.248;10.336;2022-07-15T04:34:02;7.45;;;1.50;;
7027;SDS011;3555;53.248;10.336;2022-07-15T04:36:29;5.75;;;1.25;;
7027;SDS011;3555;53.248;10.336;2022-07-15T04:38:56;3.35;;;1.00;;
7027;SDS011;3555;53.248;10.336;2022-07-15T04:41:22;4.95;;;1.52;;
7027;SDS011;3555;53.248;10.336;2022-07-15T04:43:49;8.68;;;1.63;;
7027;SDS011;3555;53.248;10.336;2022-07-15T04:46:17;4.38;;;1.70;;
7027;SDS011;3555;53.248;10.336;2022-07-15T04:48:44;5.97;;;1.42;;
7027;SDS011;3555;53.248;10.336;2022-07-15T04:51:28;3.97;;;1.23;;
7027;SDS011;3555;53.248;10.336;2022-07-15T04:53:55;4.40;;;1.50;;
7027;SDS011;3555;53.248;10.336;2022-07-15T04:56:22;4.38;;;1.45;;
7027;SDS011;3555;53.248;10.336;2022-07-15T04:58:49;6.72;;;1.23;;
7027;SDS011;3555;53.248;10.336;2022-07-15T05:01:16;4.88;;;1.35;;
7027;SDS011;3555;53.248;10.336;2022-07-15T05:03:44;5.68;;;1.55;;
7027;SDS011;3555;53.248;10.336;2022-07-15T05:06:11;6.63;;;1.50;;
7027;SDS011;3555;53.248;10.336;2022-07-15T05:08:37;4.93;;;1.20;;
7027;SDS011;3555;53.248;10.336;2022-07-15T05:11:04;4.93;;;1.17;;
7027;SDS011;3555;53.248;10.336;2022-07-15T05:13:31;6.13;;;1.58;;
7027;SDS011;3555;53.248;10.336;2022-07-15T05:15:58;7.93;;;1.50;;
7027;SDS011;3555;53.248;10.336;2022-07-15T05:18:26;5.70;;;1.20;;
7027;SDS011;3555;53.248;10.336;2022-07-15T05:20:53;4.32;;;1.40;;
7027;SDS011;3555;53.248;10.336;2022-07-15T05:23:20;3.45;;;1.13;;
7027;SDS011;3555;53.248;10.336;2022-07-15T05:25:47;7.20;;;1.67;;
7027;SDS011;3555;53.248;10.336;2022-07-15T05:28:14;4.90;;;1.20;;
7027;SDS011;3555;53.248;10.336;2022-07-15T05:30:41;5.30;;;1.52;;
7027;SDS011;3555;53.248;10.336;2022-07-15T05:33:07;3.90;;;1.50;;
7027;SDS011;3555;53.248;10.336;2022-07-15T05:35:36;4.38;;;1.05;;
7027;SDS011;3555;53.248;10.336;2022-07-15T05:38:02;5.68;;;1.25;;
7027;SDS011;3555;53.248;10.336;2022-07-15T05:40:29;5.88;;;1.20;;
7027;SDS011;3555;53.248;10.336;2022-07-15T05:42:56;5.03;;;1.42;;
7027;SDS011;3555;53.248;10.336;2022-07-15T05:45:23;4.75;;;1.30;;
7027;SDS011;3555;53.248;10.336;2022-07-15T05:47:50;8.20;;;1.65;;
7027;SDS011;3555;53.248;10.336;2022-07-15T05:50:17;6.30;;;1.52;;
7027;SDS011;3555;53.248;10.336;2022-07-15T05:52:46;6.47;;;1.40;;
7027;SDS011;3555;53.248;10.336;2022-07-15T05:55:14;4.28;;;1.23;;
7027;SDS011;3555;53.248;10.336;2022-07-15T05:57:41;6.53;;;1.13;;
7027;SDS011;3555;53.248;10.336;2022-07-15T06:00:08;6.75;;;1.50;;
7027;SDS011;3555;53.248;10.336;2022-07-15T06:02:35;6.35;;;1.73;;
7027;SDS011;3555;53.248;10.336;2022-07-15T06:05:02;6.70;;;1.20;;
7027;SDS011;3555;53.248;10.336;2022-07-15T06:07:30;2.15;;;0.95;;
7027;SDS011;3555;53.248;10.336;2022-07-15T06:09:58;5.60;;;1.45;;
7027;SDS011;3555;53.248;10.336;2022-07-15T06:12:25;4.20;;;1.17;;
7027;SDS011;3555;53.248;10.336;2022-07-15T06:14:52;7.88;;;1.67;;
7027;SDS011;3555;53.248;10.336;2022-07-15T06:17:18;5.28;;;1.33;;
7027;SDS011;3555;53.248;10.336;2022-07-15T06:19:45;6.82;;;1.30;;
7027;SDS011;3555;53.248;10.336;2022-07-15T06:22:12;6.00;;;1.80;;
7027;SDS011;3555;53.248;10.336;2022-07-15T06:24:39;3.47;;;1.23;;
7027;SDS011;3555;53.248;10.336;2022-07-15T06:27:07;4.68;;;1.30;;
7027;SDS011;3555;53.248;10.336;2022-07-15T06:29:34;4.80;;;1.35;;
7027;SDS011;3555;53.248;10.336;2022-07-15T06:32:01;5.68;;;1.20;;
7027;SDS011;3555;53.248;10.336;2022-07-15T06:34:28;6.75;;;1.55;;
7027;SDS011;3555;53.248;10.336;2022-07-15T06:36:54;3.88;;;1.10;;
7027;SDS011;3555;53.248;10.336;2022-07-15T06:39:21;4.82;;;1.20;;
7027;SDS011;3555;53.248;10.336;2022-07-15T06:41:48;5.35;;;1.88;;
7027;SDS011;3555;53.248;10.336;2022-07-15T06:44:16;6.07;;;1.58;;
7027;SDS011;3555;53.248;10.336;2022-07-15T06:46:43;7.30;;;1.63;;
7027;SDS011;3555;53.248;10.336;2022-07-15T06:49:10;3.17;;;1.33;;
7027;SDS011;3555;53.248;10.336;2022-07-15T06:51:37;4.90;;;1.40;;
7027;SDS011;3555;53.248;10.336;2022-07-15T06:54:04;6.40;;;1.48;;
7027;SDS011;3555;53.248;10.336;2022-07-15T06:56:32;7.07;;;1.25;;
7027;SDS011;3555;53.248;10.336;2022-07-15T06:58:59;5.07;;;1.27;;
7027;SDS011;3555;53.248;10.336;2022-07-15T07:01:28;4.03;;;1.17;;
7027;SDS011;3555;53.248;10.336;2022-07-15T07:03:54;6.70;;;1.30;;
7027;SDS011;3555;53.248;10.336;2022-07-15T07:06:22;9.32;;;1.80;;
7027;SDS011;3555;53.248;10.336;2022-07-15T07:08:50;2.17;;;1.00;;
7027;SDS011;3555;53.248;10.336;2022-07-15T07:11:18;6.85;;;1.38;;
7027;SDS011;3555;53.248;10.336;2022-07-15T07:13:44;2.67;;;0.73;;
7027;SDS011;3555;53.248;10.336;2022-07-15T07:16:11;5.85;;;1.10;;
7027;SDS011;3555;53.248;10.336;2022-07-15T07:18:40;4.22;;;1.23;;
7027;SDS011;3555;53.248;10.336;2022-07-15T07:21:07;5.85;;;1.48;;
7027;SDS011;3555;53.248;10.336;2022-07-15T07:23:34;5.82;;;1.25;;
7027;SDS011;3555;53.248;10.336;2022-07-15T07:26:01;2.88;;;1.05;;
7027;SDS011;3555;53.248;10.336;2022-07-15T07:28:29;5.82;;;1.25;;
7027;SDS011;3555;53.248;10.336;2022-07-15T07:30:55;4.18;;;1.00;;
7027;SDS011;3555;53.248;10.336;2022-07-15T07:33:22;4.50;;;1.23;;
7027;SDS011;3555;53.248;10.336;2022-07-15T07:35:50;3.13;;;1.10;;
7027;SDS011;3555;53.248;10.336;2022-07-15T07:38:18;5.07;;;1.13;;
7027;SDS011;3555;53.248;10.336;2022-07-15T07:40:46;4.13;;;1.10;;
7027;SDS011;3555;53.248;10.336;2022-07-15T07:43:13;6.20;;;1.13;;
7027;SDS011;3555;53.248;10.336;2022-07-15T07:45:40;5.78;;;1.10;;
7027;SDS011;3555;53.248;10.336;2022-07-15T07:48:07;3.90;;;1.23;;
7027;SDS011;3555;53.248;10.336;2022-07-15T07:50:34;7.15;;;1.20;;
7027;SDS011;3555;53.248;10.336;2022-07-15T07:53:02;4.45;;;1.08;;
7027;SDS011;3555;53.248;10.336;2022-07-15T07:55:29;3.75;;;1.38;;
7027;SDS011;3555;53.248;10.336;2022-07-15T07:57:57;5.25;;;1.27;;
7027;SDS011;3555;53.248;10.336;2022-07-15T08:00:25;4.47;;;0.85;;
7027;SDS011;3555;53.248;10.336;2022-07-15T08:02:53;4.05;;;0.93;;
7027;SDS011;3555;53.248;10.336;2022-07-15T08:05:21;6.03;;;1.58;;
7027;SDS011;3555;53.248;10.336;2022-07-15T08:07:49;3.38;;;1.05;;
7027;SDS011;3555;53.248;10.336;2022-07-15T08:10:17;4.65;;;1.15;;
7027;SDS011;3555;53.248;10.336;2022-07-15T08:12:45;4.03;;;1.33;;
7027;SDS011;3555;53.248;10.336;2022-07-15T08:15:12;3.92;;;1.02;;
7027;SDS011;3555;53.248;10.336;2022-07-15T08:17:40;4.65;;;1.20;;
7027;SDS011;3555;53.248;10.336;2022-07-15T08:20:07;4.88;;;1.35;;
7027;SDS011;3555;53.248;10.336;2022-07-15T08:22:36;5.70;;;1.30;;
7027;SDS011;3555;53.248;10.336;2022-07-15T08:25:03;7.40;;;1.48;;
7027;SDS011;3555;53.248;10.336;2022-07-15T08:27:32;4.10;;;1.30;;
7027;SDS011;3555;53.248;10.336;2022-07-15T08:29:59;3.22;;;1.00;;
7027;SDS011;3555;53.248;10.336;2022-07-15T08:32:26;3.83;;;1.30;;
7027;SDS011;3555;53.248;10.336;2022-07-15T08:34:53;4.03;;;1.00;;
7027;SDS011;3555;53.248;10.336;2022-07-15T08:37:19;2.35;;;0.90;;
7027;SDS011;3555;53.248;10.336;2022-07-15T08:39:46;6.95;;;1.45;;
7027;SDS011;3555;53.248;10.336;2022-07-15T08:42:13;5.70;;;1.20;;
7027;SDS011;3555;53.248;10.336;2022-07-15T08:44:41;6.43;;;1.60;;
7027;SDS011;3555;53.248;10.336;2022-07-15T08:47:08;4.18;;;1.00;;
7027;SDS011;3555;53.248;10.336;2022-07-15T08:49:37;3.28;;;0.80;;
7027;SDS011;3555;53.248;10.336;2022-07-15T08:52:05;3.50;;;1.38;;
7027;SDS011;3555;53.248;10.336;2022-07-15T08:54:32;5.65;;;1.13;;
7027;SDS011;3555;53.248;10.336;2022-07-15T08:56:59;5.65;;;1.30;;
7027;SDS011;3555;53.248;10.336;2022-07-15T08:59:26;2.92;;;0.70;;
7027;SDS011;3555;53.248;10.336;2022-07-15T09:01:54;6.00;;;1.10;;
7027;SDS011;3555;53.248;10.336;2022-07-15T09:04:21;3.22;;;1.00;;
7027;SDS011;3555;53.248;10.336;2022-07-15T09:06:49;3.55;;;1.10;;
7027;SDS011;3555;53.248;10.336;2022-07-15T09:09:23;3.55;;;1.13;;
7027;SDS011;3555;53.248;10.336;2022-07-15T09:11:59;5.07;;;1.52;;
7027;SDS011;3555;53.248;10.336;2022-07-15T09:14:28;4.05;;;0.90;;
7027;SDS011;3555;53.248;10.336;2022-07-15T09:17:17;3.92;;;1.10;;
7027;SDS011;3555;53.248;10.336;2022-07-15T09:20:03;3.75;;;0.93;;
7027;SDS011;3555;53.248;10.336;2022-07-15T09:22:34;3.72;;;0.90;;
7027;SDS011;3555;53.248;10.336;2022-07-15T09:25:14;3.08;;;0.90;;
7027;SDS011;3555;53.248;10.336;2022-07-15T09:27:42;2.75;;;0.80;;
7027;SDS011;3555;53.248;10.336;2022-07-15T09:30:13;3.30;;;0.82;;
7027;SDS011;3555;53.248;10.336;2022-07-15T09:33:01;3.20;;;0.80;;
7027;SDS011;3555;53.248;10.336;2022-07-15T09:35:47;3.17;;;0.75;;
7027;SDS011;3555;53.248;10.336;2022-07-15T09:38:30;2.03;;;0.60;;
7027;SDS011;3555;53.248;10.336;2022-07-15T09:41:05;2.80;;;0.93;;
7027;SDS011;3555;53.248;10.336;2022-07-15T09:46:16;4.38;;;1.00;;
7027;SDS011;3555;53.248;10.336;2022-07-15T09:48:47;4.95;;;0.93;;
7027;SDS011;3555;53.248;10.336;2022-07-15T09:51:15;5.70;;;0.90;;
7027;SDS011;3555;53.248;10.336;2022-07-15T09:53:42;4.40;;;0.70;;
7027;SDS011;3555;53.248;10.336;2022-07-15T09:56:11;3.53;;;0.75;;
7027;SDS011;3555;53.248;10.336;2022-07-15T09:58:39;5.18;;;0.82;;
7027;SDS011;3555;53.248;10.336;2022-07-15T10:01:08;2.50;;;1.00;;
7027;SDS011;3555;53.248;10.336;2022-07-15T10:03:36;2.58;;;0.88;;
7027;SDS011;3555;53.248;10.336;2022-07-15T10:06:05;2.70;;;0.75;;
7027;SDS011;3555;53.248;10.336;2022-07-15T10:08:33;2.03;;;0.82;;
7027;SDS011;3555;53.248;10.336;2022-07-15T10:11:00;3.28;;;0.73;;
7027;SDS011;3555;53.248;10.336;2022-07-15T10:13:53;2.22;;;0.88;;
7027;SDS011;3555;53.248;10.336;2022-07-15T10:16:44;3.60;;;0.95;;
7027;SDS011;3555;53.248;10.336;2022-07-15T10:19:23;2.30;;;0.77;;
7027;SDS011;3555;53.248;10.336;2022-07-15T10:22:04;5.15;;;0.98;;
7027;SDS011;3555;53.248;10.336;2022-07-15T10:24:44;5.10;;;1.17;;
7027;SDS011;3555;53.248;10.336;2022-07-15T10:27:33;4.15;;;0.88;;
7027;SDS011;3555;53.248;10.336;2022-07-15T10:30:10;3.17;;;0.70;;
7027;SDS011;3555;53.248;10.336;2022-07-15T10:35:36;2.20;;;0.70;;
7027;SDS011;3555;53.248;10.336;2022-07-15T10:38:25;2.47;;;1.15;;
7027;SDS011;3555;53.248;10.336;2022-07-15T10:41:01;3.63;;;0.80;;
7027;SDS011;3555;53.248;10.336;2022-07-15T10:43:43;2.47;;;0.95;;
7027;SDS011;3555;53.248;10.336;2022-07-15T10:46:17;5.35;;;1.10;;
7027;SDS011;3555;53.248;10.336;2022-07-15T10:48:52;4.13;;;1.20;;
7027;SDS011;3555;53.248;10.336;2022-07-15T10:51:42;2.00;;;0.90;;
7027;SDS011;3555;53.248;10.336;2022-07-15T10:57:09;2.92;;;0.75;;
7027;SDS011;3555;53.248;10.336;2022-07-15T10:59:38;3.60;;;0.70;;
7027;SDS011;3555;53.248;10.336;2022-07-15T11:02:14;3.20;;;1.02;;
7027;SDS011;3555;53.248;10.336;2022-07-15T11:04:43;2.70;;;0.70;;
7027;SDS011;3555;53.248;10.336;2022-07-15T11:07:23;2.17;;;0.63;;
7027;SDS011;3555;53.248;10.336;2022-07-15T11:09:53;3.95;;;0.93;;
7027;SDS011;3555;53.248;10.336;2022-07-15T11:12:22;2.83;;;0.80;;
7027;SDS011;3555;53.248;10.336;2022-07-15T11:14:51;4.05;;;1.15;;
7027;SDS011;3555;53.248;10.336;2022-07-15T11:17:21;2.10;;;0.73;;
7027;SDS011;3555;53.248;10.336;2022-07-15T11:19:51;5.13;;;1.00;;
7027;SDS011;3555;53.248;10.336;2022-07-15T11:22:20;1.90;;;0.63;;
7027;SDS011;3555;53.248;10.336;2022-07-15T11:24:48;2.90;;;0.60;;
7027;SDS011;3555;53.248;10.336;2022-07-15T11:27:16;1.77;;;0.73;;
7027;SDS011;3555;53.248;10.336;2022-07-15T11:29:44;4.50;;;0.85;;
7027;SDS011;3555;53.248;10.336;2022-07-15T11:32:16;4.25;;;0.70;;
7027;SDS011;3555;53.248;10.336;2022-07-15T11:34:44;3.53;;;0.70;;
7027;SDS011;3555;53.248;10.336;2022-07-15T11:37:13;4.80;;;0.75;;
7027;SDS011;3555;53.248;10.336;2022-07-15T11:39:45;3.05;;;0.63;;
7027;SDS011;3555;53.248;10.336;2022-07-15T11:42:22;2.95;;;0.60;;
7027;SDS011;3555;53.248;10.336;2022-07-15T11:45:08;1.73;;;0.50;;
7027;SDS011;3555;53.248;10.336;2022-07-15T11:47:39;1.65;;;0.60;;
7027;SDS011;3555;53.248;10.336;2022-07-15T11:50:17;1.42;;;0.60;;
7027;SDS011;3555;53.248;10.336;2022-07-15T11:52:44;2.70;;;0.73;;
7027;SDS011;3555;53.248;10.336;2022-07-15T11:55:12;2.88;;;0.65;;
7027;SDS011;3555;53.248;10.336;2022-07-15T11:57:43;2.85;;;0.73;;
7027;SDS011;3555;53.248;10.336;2022-07-15T12:00:12;2.45;;;1.00;;
7027;SDS011;3555;53.248;10.336;2022-07-15T12:02:39;3.95;;;0.80;;
7027;SDS011;3555;53.248;10.336;2022-07-15T12:05:07;2.08;;;0.70;;
7027;SDS011;3555;53.248;10.336;2022-07-15T12:07:39;1.88;;;0.50;;
7027;SDS011;3555;53.248;10.336;2022-07-15T12:10:07;3.10;;;0.80;;
7027;SDS011;3555;53.248;10.336;2022-07-15T12:12:37;3.67;;;0.63;;
7027;SDS011;3555;53.248;10.336;2022-07-15T12:15:08;1.63;;;0.60;;
7027;SDS011;3555;53.248;10.336;2022-07-15T12:17:36;3.25;;;1.10;;
7027;SDS011;3555;53.248;10.336;2022-07-15T12:20:04;1.55;;;0.70;;
7027;SDS011;3555;53.248;10.336;2022-07-15T12:22:31;2.13;;;0.65;;
7027;SDS011;3555;53.248;10.336;2022-07-15T12:24:59;2.92;;;0.80;;
7027;SDS011;3555;53.248;10.336;2022-07-15T12:27:34;3.03;;;0.60;;
7027;SDS011;3555;53.248;10.336;2022-07-15T12:30:04;1.40;;;0.60;;
7027;SDS011;3555;53.248;10.336;2022-07-15T12:32:32;2.65;;;0.70;;
7027;SDS011;3555;53.248;10.336;2022-07-15T12:34:59;3.17;;;0.70;;
7027;SDS011;3555;53.248;10.336;2022-07-15T12:40:20;2.05;;;0.77;;
7027;SDS011;3555;53.248;10.336;2022-07-15T12:42:49;2.03;;;0.80;;
7027;SDS011;3555;53.248;10.336;2022-07-15T12:45:19;2.45;;;0.75;;
7027;SDS011;3555;53.248;10.336;2022-07-15T12:47:57;3.00;;;0.70;;
7027;SDS011;3555;53.248;10.336;2022-07-15T12:50:25;3.83;;;0.80;;
7027;SDS011;3555;53.248;10.336;2022-07-15T12:52:55;3.65;;;0.60;;
7027;SDS011;3555;53.248;10.336;2022-07-15T12:55:23;1.52;;;0.65;;
7027;SDS011;3555;53.248;10.336;2022-07-15T12:58:02;3.80;;;0.90;;
7027;SDS011;3555;53.248;10.336;2022-07-15T13:00:32;2.97;;;0.60;;
7027;SDS011;3555;53.248;10.336;2022-07-15T13:03:00;2.88;;;0.90;;
7027;SDS011;3555;53.248;10.336;2022-07-15T13:05:30;3.53;;;0.70;;
7027;SDS011;3555;53.248;10.336;2022-07-15T13:07:58;2.92;;;0.68;;
7027;SDS011;3555;53.248;10.336;2022-07-15T13:10:27;2.70;;;0.75;;
7027;SDS011;3555;53.248;10.336;2022-07-15T13:12:54;4.03;;;0.82;;
7027;SDS011;3555;53.248;10.336;2022-07-15T13:15:21;3.33;;;0.90;;
7027;SDS011;3555;53.248;10.336;2022-07-15T13:17:49;2.05;;;0.70;;
7027;SDS011;3555;53.248;10.336;2022-07-15T13:20:19;2.50;;;0.70;;
7027;SDS011;3555;53.248;10.336;2022-07-15T13:22:48;3.13;;;0.80;;
7027;SDS011;3555;53.248;10.336;2022-07-15T13:25:16;3.10;;;0.82;;
7027;SDS011;3555;53.248;10.336;2022-07-15T13:27:46;4.13;;;0.95;;
7027;SDS011;3555;53.248;10.336;2022-07-15T13:30:13;2.53;;;0.75;;
7027;SDS011;3555;53.248;10.336;2022-07-15T13:32:42;2.80;;;0.70;;
7027;SDS011;3555;53.248;10.336;2022-07-15T13:35:13;1.88;;;0.73;;
7027;SDS011;3555;53.248;10.336;2022-07-15T13:37:40;3.10;;;0.73;;
7027;SDS011;3555;53.248;10.336;2022-07-15T13:40:09;2.10;;;0.70;;
7027;SDS011;3555;53.248;10.336;2022-07-15T13:42:37;4.65;;;1.13;;
7027;SDS011;3555;53.248;10.336;2022-07-15T13:45:05;2.55;;;0.68;;
7027;SDS011;3555;53.248;10.336;2022-07-15T13:47:33;2.92;;;0.70;;
7027;SDS011;3555;53.248;10.336;2022-07-15T13:50:00;1.23;;;0.60;;
7027;SDS011;3555;53.248;10.336;2022-07-15T13:52:47;2.53;;;0.90;;
7027;SDS011;3555;53.248;10.336;2022-07-15T13:55:16;3.22;;;1.00;;
7027;SDS011;3555;53.248;10.336;2022-07-15T13:57:45;3.15;;;0.80;;
7027;SDS011;3555;53.248;10.336;2022-07-15T14:00:13;1.98;;;0.75;;
7027;SDS011;3555;53.248;10.336;2022-07-15T14:02:44;4.88;;;0.70;;
7027;SDS011;3555;53.248;10.336;2022-07-15T14:05:11;2.58;;;0.63;;
7027;SDS011;3555;53.248;10.336;2022-07-15T14:07:39;2.65;;;1.02;;
7027;SDS011;3555;53.248;10.336;2022-07-15T14:10:08;2.13;;;0.80;;
7027;SDS011;3555;53.248;10.336;2022-07-15T14:12:36;2.10;;;0.60;;
7027;SDS011;3555;53.248;10.336;2022-07-15T14:15:03;2.60;;;0.95;;
7027;SDS011;3555;53.248;10.336;2022-07-15T14:17:30;3.83;;;1.02;;
7027;SDS011;3555;53.248;10.336;2022-07-15T14:19:57;2.97;;;0.63;;
7027;SDS011;3555;53.248;10.336;2022-07-15T14:22:26;3.78;;;0.80;;
7027;SDS011;3555;53.248;10.336;2022-07-15T14:24:54;3.05;;;0.80;;
7027;SDS011;3555;53.248;10.336;2022-07-15T14:27:25;2.25;;;0.70;;
7027;SDS011;3555;53.248;10.336;2022-07-15T14:29:52;2.17;;;0.85;;
7027;SDS011;3555;53.248;10.336;2022-07-15T14:32:22;1.92;;;0.70;;
7027;SDS011;3555;53.248;10.336;2022-07-15T14:34:49;3.15;;;0.88;;
7027;SDS011;3555;53.248;10.336;2022-07-15T14:37:16;3.72;;;1.15;;
7027;SDS011;3555;53.248;10.336;2022-07-15T14:39:45;2.78;;;0.75;;
7027;SDS011;3555;53.248;10.336;2022-07-15T14:42:12;2.50;;;0.85;;
7027;SDS011;3555;53.248;10.336;2022-07-15T14:44:40;3.90;;;0.80;;
7027;SDS011;3555;53.248;10.336;2022-07-15T14:47:07;2.80;;;0.60;;
7027;SDS011;3555;53.248;10.336;2022-07-15T14:49:34;4.18;;;0.80;;
7027;SDS011;3555;53.248;10.336;2022-07-15T14:52:01;2.92;;;0.60;;
7027;SDS011;3555;53.248;10.336;2022-07-15T14:54:28;1.65;;;0.70;;
7027;SDS011;3555;53.248;10.336;2022-07-15T14:56:55;3.25;;;0.88;;
7027;SDS011;3555;53.248;10.336;2022-07-15T14:59:22;1.92;;;1.05;;
7027;SDS011;3555;53.248;10.336;2022-07-15T15:01:50;1.77;;;0.70;;
7027;SDS011;3555;53.248;10.336;2022-07-15T15:04:18;2.33;;;0.77;;
7027;SDS011;3555;53.248;10.336;2022-07-15T15:06:45;3.88;;;0.90;;
7027;SDS011;3555;53.248;10.336;2022-07-15T15:09:12;2.30;;;1.05;;
7027;SDS011;3555;53.248;10.336;2022-07-15T15:11:38;1.75;;;0.70;;
7027;SDS011;3555;53.248;10.336;2022-07-15T15:14:05;4.32;;;0.60;;
7027;SDS011;3555;53.248;10.336;2022-07-15T15:16:32;3.03;;;0.70;;
7027;SDS011;3555;53.248;10.336;2022-07-15T15:19:00;4.65;;;0.90;;
7027;SDS011;3555;53.248;10.336;2022-07-15T15:21:27;1.55;;;0.60;;